createdAt,value
2019-03-08T01:10:42.335Z,12.10
2019-03-08T01:13:13.008Z,11.88
2019-03-08T01:15:43.752Z,11.93
2019-03-08T01:18:14.388Z,11.95
2019-03-08T01:20:45.234Z,11.08
2019-03-08T01:23:15.946Z,11.30
2019-03-08T01:25:46.338Z,11.83
2019-03-08T01:28:16.886Z,11.95
2019-03-08T01:30:47.466Z,11.48
2019-03-08T01:33:18.866Z,12.33
2019-03-08T01:35:49.606Z,10.82
2019-03-08T01:38:19.990Z,11.85
2019-03-08T01:40:50.626Z,11.83
2019-03-08T01:43:21.416Z,12.07
2019-03-08T01:46:12.508Z,12.68
2019-03-08T01:49:03.509Z,12.50
2019-03-08T01:51:35.671Z,12.37
2019-03-08T01:54:06.598Z,12.63
2019-03-08T01:56:36.989Z,11.25
2019-03-08T01:59:07.555Z,11.28
2019-03-08T02:01:38.555Z,12.23
2019-03-08T02:04:09.641Z,11.15
2019-03-08T02:09:30.737Z,11.43
2019-03-08T02:12:01.368Z,11.10
2019-03-08T02:14:32.122Z,10.58
2019-03-08T02:17:03.318Z,11.20
2019-03-08T02:19:33.977Z,10.75
2019-03-08T02:22:04.711Z,12.00
2019-03-08T02:24:35.910Z,12.10
2019-03-08T02:27:06.746Z,11.25
2019-03-08T02:29:39.116Z,12.20
2019-03-08T02:32:09.546Z,12.37
2019-03-08T02:34:40.334Z,13.28
2019-03-08T02:37:10.938Z,12.60
2019-03-08T02:39:41.875Z,11.97
2019-03-08T02:42:12.535Z,10.93
2019-03-08T02:44:44.222Z,11.43
2019-03-08T02:47:15.050Z,11.40
2019-03-08T02:49:45.693Z,10.75
2019-03-08T02:52:16.439Z,10.93
2019-03-08T02:54:47.270Z,10.30
2019-03-08T02:57:17.883Z,10.38
2019-03-08T02:59:48.383Z,11.30
2019-03-08T03:02:19.194Z,10.60
2019-03-08T03:04:49.998Z,10.40
2019-03-08T03:07:20.714Z,11.03
2019-03-08T03:09:51.602Z,10.30
2019-03-08T03:12:21.986Z,11.35
2019-03-08T03:14:52.382Z,12.00
2019-03-08T03:17:23.292Z,10.25
2019-03-08T03:19:54.502Z,9.58
2019-03-08T03:22:24.910Z,10.48
2019-03-08T03:24:55.555Z,10.65
2019-03-08T03:27:29.005Z,9.98
2019-03-08T03:29:59.568Z,10.78
2019-03-08T03:32:30.883Z,10.80
2019-03-08T03:35:01.535Z,10.28
2019-03-08T03:37:32.288Z,11.18
2019-03-08T03:40:04.271Z,10.15
2019-03-08T03:53:16.977Z,10.50
2019-03-08T04:05:37.267Z,11.10
2019-03-08T04:08:07.828Z,11.50
2019-03-08T04:10:38.264Z,10.43
2019-03-08T04:13:08.730Z,10.82
2019-03-08T04:15:39.285Z,11.50
2019-03-08T04:18:09.677Z,10.58
2019-03-08T04:20:40.623Z,10.58
2019-03-08T04:23:11.174Z,10.40
2019-03-08T04:25:41.886Z,10.65
2019-03-08T04:28:12.694Z,10.50
2019-03-08T04:33:19.850Z,11.12
2019-03-08T04:35:50.676Z,10.08
2019-03-08T04:38:21.849Z,10.88
2019-03-08T04:40:52.571Z,10.03
2019-03-08T04:43:23.455Z,9.88
2019-03-08T04:45:54.103Z,9.73
2019-03-08T04:48:24.714Z,9.40
2019-03-08T04:50:55.275Z,9.80
2019-03-08T04:53:25.678Z,9.55
2019-03-08T04:55:56.405Z,9.75
2019-03-08T04:58:27.330Z,9.15
2019-03-08T05:00:58.064Z,8.93
2019-03-08T05:03:28.456Z,9.48
2019-03-08T05:06:00.761Z,9.65
2019-03-08T05:08:31.672Z,9.30
2019-03-08T05:11:02.066Z,9.83
2019-03-08T05:13:32.626Z,10.63
2019-03-08T05:16:03.678Z,9.55
2019-03-08T05:18:34.058Z,8.70
2019-03-08T05:21:04.852Z,9.38
2019-03-08T05:23:35.662Z,8.90
2019-03-08T05:26:06.048Z,9.90
2019-03-08T05:28:43.460Z,9.35
2019-03-08T05:31:14.219Z,9.05
2019-03-08T05:33:44.773Z,8.53
2019-03-08T05:36:15.266Z,9.20
2019-03-08T05:38:45.643Z,8.48
2019-03-08T05:41:17.643Z,9.33
2019-03-08T05:43:48.837Z,8.90
2019-03-08T05:46:19.321Z,8.60
2019-03-08T05:48:50.201Z,9.28
2019-03-08T05:51:20.684Z,8.70
2019-03-08T05:53:51.471Z,8.83
2019-03-08T05:56:22.022Z,8.00
2019-03-08T05:58:52.417Z,9.18
2019-03-08T06:01:22.795Z,9.10
2019-03-08T06:03:53.444Z,9.00
2019-03-08T06:06:26.039Z,9.28
2019-03-08T06:08:56.205Z,8.65
2019-03-08T06:11:26.587Z,9.33
2019-03-08T06:13:56.989Z,9.05
2019-03-08T06:16:27.820Z,8.35
2019-03-08T06:18:58.466Z,8.38
2019-03-08T06:21:29.180Z,8.80
2019-03-08T06:26:49.506Z,8.50
2019-03-08T06:29:20.181Z,9.40
2019-03-08T06:31:50.850Z,8.78
2019-03-08T06:34:24.585Z,9.18
2019-03-08T06:36:55.358Z,8.83
2019-03-08T06:39:26.173Z,9.23
2019-03-08T06:41:56.970Z,9.80
2019-03-08T06:44:27.726Z,9.58
2019-03-08T06:46:58.463Z,9.28
2019-03-08T06:49:29.355Z,9.30
2019-03-08T06:52:01.000Z,9.45
2019-03-08T06:54:31.766Z,9.35
2019-03-08T06:57:02.645Z,9.40
2019-03-08T06:59:35.027Z,8.18
2019-03-08T07:02:05.639Z,8.65
2019-03-08T07:04:36.617Z,9.53
2019-03-08T07:07:07.285Z,8.90
2019-03-08T07:09:37.882Z,9.35
2019-03-08T07:12:08.450Z,8.68
2019-03-08T07:14:38.834Z,9.40
2019-03-08T07:17:10.011Z,8.63
2019-03-08T07:19:41.934Z,8.10
2019-03-08T07:22:14.100Z,9.53
2019-03-08T07:24:52.007Z,8.43
2019-03-08T07:27:23.874Z,8.98
2019-03-08T07:30:03.125Z,7.87
2019-03-08T07:32:37.526Z,8.93
2019-03-08T07:35:16.003Z,9.08
2019-03-08T07:37:47.881Z,9.08
2019-03-08T07:40:23.243Z,8.70
2019-03-08T07:42:57.514Z,7.83
2019-03-08T07:45:35.322Z,9.13
2019-03-08T07:48:12.928Z,8.98
2019-03-08T07:50:46.890Z,8.23
2019-03-08T07:53:33.228Z,8.73
2019-03-08T07:56:08.083Z,9.15
2019-03-08T07:58:56.207Z,8.48
2019-03-08T08:01:28.234Z,7.60
2019-03-08T08:04:00.892Z,8.25
2019-03-08T08:06:39.972Z,8.23
2019-03-08T08:09:14.155Z,8.40
2019-03-08T08:11:51.997Z,8.28
2019-03-08T08:14:39.993Z,7.97
2019-03-08T08:17:14.646Z,7.53
2019-03-08T08:19:49.478Z,7.45
2019-03-08T08:22:24.343Z,8.78
2019-03-08T08:24:56.211Z,8.83
2019-03-08T08:27:31.313Z,9.00
2019-03-08T08:30:05.186Z,9.30
2019-03-08T08:32:52.826Z,7.78
2019-03-08T08:35:41.555Z,8.43
2019-03-08T08:38:13.482Z,9.58
2019-03-08T08:40:57.281Z,8.83
2019-03-08T08:43:38.195Z,8.88
2019-03-08T08:46:12.518Z,8.83
2019-03-08T08:51:33.494Z,8.50
2019-03-08T08:54:05.491Z,8.88
2019-03-08T08:56:53.383Z,8.33
2019-03-08T08:59:28.557Z,8.73
2019-03-08T09:02:00.690Z,8.08
2019-03-08T09:04:48.962Z,8.20
2019-03-08T09:07:26.808Z,7.83
2019-03-08T09:09:58.827Z,8.13
2019-03-08T09:12:40.873Z,8.30
2019-03-08T09:15:22.251Z,7.80
2019-03-08T09:17:54.018Z,8.60
2019-03-08T09:20:29.032Z,8.13
2019-03-08T09:23:07.282Z,8.23
2019-03-08T09:25:48.430Z,8.25
2019-03-08T09:28:22.709Z,8.20
2019-03-08T09:31:00.694Z,7.37
2019-03-08T09:33:33.012Z,8.60
2019-03-08T09:36:21.631Z,7.55
2019-03-08T09:39:10.004Z,6.30
2019-03-08T09:42:00.703Z,7.47
2019-03-08T09:44:42.059Z,7.47
2019-03-08T09:47:14.395Z,8.23
2019-03-08T09:49:49.659Z,9.13
2019-03-08T09:52:24.639Z,9.10
2019-03-08T09:55:03.010Z,8.00
2019-03-08T09:57:35.734Z,7.45
2019-03-08T10:00:25.560Z,9.05
2019-03-08T10:02:59.690Z,9.48
2019-03-08T10:05:40.725Z,8.35
2019-03-08T10:08:29.957Z,8.95
2019-03-08T10:11:07.960Z,9.78
2019-03-08T10:13:48.945Z,9.20
2019-03-08T10:16:27.441Z,9.75
2019-03-08T10:19:09.023Z,10.30
2019-03-08T10:21:57.506Z,8.55
2019-03-08T10:24:32.334Z,9.75
2019-03-08T10:27:16.310Z,9.85
2019-03-08T10:30:04.867Z,10.85
2019-03-08T10:32:52.746Z,10.80
2019-03-08T10:35:37.556Z,9.18
2019-03-08T10:38:10.051Z,9.60
2019-03-08T10:40:42.423Z,10.03
2019-03-08T10:43:17.664Z,9.43
2019-03-08T10:45:49.972Z,10.05
2019-03-08T10:48:31.591Z,8.75
2019-03-08T10:51:09.249Z,9.10
2019-03-08T10:53:41.002Z,7.92
2019-03-08T10:56:12.930Z,9.30
2019-03-08T10:58:50.558Z,10.00
2019-03-08T11:01:34.258Z,10.55
2019-03-08T11:04:06.189Z,10.40
2019-03-08T11:06:54.035Z,10.63
2019-03-08T11:09:28.854Z,11.28
2019-03-08T11:12:10.261Z,13.47
2019-03-08T11:14:42.171Z,12.30
2019-03-08T11:17:19.714Z,11.57
2019-03-08T11:20:01.179Z,11.45
2019-03-08T11:22:37.394Z,10.93
2019-03-08T11:25:34.551Z,11.85
2019-03-08T11:27:59.414Z,11.80
2019-03-08T11:30:34.500Z,13.90
2019-03-08T11:33:15.838Z,13.58
2019-03-08T11:36:07.101Z,11.97
2019-03-08T11:38:42.510Z,12.13
2019-03-08T11:41:14.628Z,10.60
2019-03-08T11:43:49.548Z,10.60
2019-03-08T11:55:29.231Z,9.78
2019-03-08T11:58:05.402Z,10.90
2019-03-08T12:00:37.479Z,9.85
2019-03-08T12:03:27.741Z,10.48
2019-03-08T12:06:01.069Z,10.58
2019-03-08T12:08:45.619Z,10.65
2019-03-08T12:11:28.190Z,11.48
2019-03-08T12:14:00.307Z,12.03
2019-03-08T12:16:41.486Z,12.35
2019-03-08T12:19:16.735Z,12.00
2019-03-08T12:21:49.502Z,12.53
2019-03-08T12:24:24.739Z,11.65
2019-03-08T12:27:00.117Z,11.35
2019-03-08T12:29:32.194Z,12.05
2019-03-08T12:32:13.345Z,11.65
2019-03-08T12:34:45.176Z,12.20
2019-03-08T12:37:23.818Z,12.80
2019-03-08T12:40:07.851Z,12.13
2019-03-08T12:42:40.205Z,12.45
2019-03-08T12:45:13.457Z,12.15
2019-03-08T12:47:51.318Z,13.43
2019-03-08T12:50:23.074Z,12.95
2019-03-08T12:53:01.279Z,13.20
2019-03-08T12:55:35.286Z,13.95
2019-03-08T12:58:10.221Z,14.03
2019-03-08T13:00:42.080Z,15.65
2019-03-08T13:03:20.174Z,14.15
2019-03-08T13:06:10.473Z,14.43
2019-03-08T13:08:51.318Z,15.13
2019-03-08T13:11:23.120Z,15.63
2019-03-08T13:13:55.469Z,16.00
2019-03-08T14:08:59.986Z,20.95
2019-03-08T14:11:36.960Z,20.12
2019-03-08T14:14:07.727Z,22.60
2019-03-08T14:16:38.415Z,20.40
2019-03-08T14:19:09.688Z,19.92
2019-03-08T14:21:41.550Z,19.57
2019-03-08T14:24:13.222Z,19.70
2019-03-08T14:26:43.646Z,19.55
2019-03-08T14:29:14.228Z,19.48
2019-03-08T14:31:49.314Z,18.98
2019-03-08T14:34:18.824Z,18.82
2019-03-08T14:36:52.260Z,18.62
2019-03-08T14:39:23.839Z,18.90
2019-03-08T14:41:56.772Z,18.98
2019-03-08T14:44:35.741Z,18.55
2019-03-08T14:47:08.060Z,18.25
2019-03-08T14:49:38.852Z,19.35
2019-03-08T14:52:10.494Z,18.73
2019-03-08T14:54:42.435Z,19.23
2019-03-08T14:57:26.349Z,19.77
2019-03-08T14:59:49.305Z,19.60
2019-03-08T15:02:20.285Z,19.67
2019-03-08T15:04:51.536Z,19.12
2019-03-08T15:07:22.387Z,19.92
2019-03-08T15:09:53.127Z,20.48
2019-03-08T15:12:23.793Z,19.67
2019-03-08T15:14:54.764Z,18.70
2019-03-08T15:17:25.569Z,18.60
2019-03-08T15:19:56.153Z,18.65
2019-03-08T15:22:26.951Z,18.32
2019-03-08T15:24:57.683Z,17.90
2019-03-08T15:27:28.278Z,18.42
2019-03-08T15:29:58.696Z,18.48
2019-03-08T15:32:29.473Z,17.95
2019-03-08T15:35:00.372Z,17.80
2019-03-08T15:37:32.281Z,17.37
2019-03-08T15:40:03.221Z,17.52
2019-03-08T15:42:43.935Z,17.37
2019-03-08T15:45:15.275Z,17.40
2019-03-08T15:47:46.374Z,17.00
2019-03-08T15:50:26.420Z,17.12
2019-03-08T15:52:57.167Z,17.25
2019-03-08T15:55:29.035Z,15.60
2019-03-08T15:58:01.513Z,16.57
2019-03-08T16:00:34.336Z,16.15
2019-03-08T16:03:05.160Z,16.77
2019-03-08T16:05:35.837Z,16.12
2019-03-08T16:08:06.622Z,14.38
2019-03-08T16:10:37.222Z,15.60
2019-03-08T16:13:08.133Z,16.02
2019-03-08T16:15:38.809Z,14.98
2019-03-08T16:18:09.530Z,15.08
2019-03-08T16:20:40.722Z,14.70
2019-03-08T16:29:06.082Z,15.10
2019-03-08T16:31:39.387Z,15.15
2019-03-08T16:34:11.186Z,14.93
2019-03-08T16:36:43.865Z,15.32
2019-03-08T16:39:17.998Z,14.45
2019-03-08T16:41:52.696Z,14.65
2019-03-08T16:44:39.599Z,14.90
2019-03-08T16:47:13.779Z,14.98
2019-03-08T16:50:06.448Z,15.25
2019-03-08T16:52:39.662Z,15.03
2019-03-08T16:55:24.644Z,14.35
2019-03-08T16:57:56.818Z,14.80
2019-03-08T17:00:28.798Z,14.60
2019-03-08T17:06:10.756Z,14.95
2019-03-08T17:11:44.327Z,14.78
2019-03-08T17:14:17.583Z,15.03
2019-03-08T17:17:01.502Z,15.48
2019-03-08T17:19:35.693Z,16.12
2019-03-08T17:22:13.849Z,14.70
2019-03-08T17:24:53.832Z,14.65
2019-03-08T17:27:31.990Z,14.25
2019-03-08T17:30:14.167Z,15.63
2019-03-08T17:32:52.050Z,15.50
2019-03-08T17:35:41.494Z,15.28
2019-03-08T17:38:21.077Z,14.95
2019-03-08T17:41:12.475Z,14.50
2019-03-08T17:43:49.628Z,15.25
2019-03-08T17:46:42.089Z,15.13
2019-03-08T17:49:17.776Z,15.38
2019-03-08T18:01:50.561Z,16.95
2019-03-08T18:04:22.483Z,15.70
2019-03-08T18:07:02.587Z,16.30
2019-03-08T18:09:35.867Z,15.55
2019-03-08T18:12:08.159Z,15.75
2019-03-08T18:14:56.640Z,16.07
2019-03-08T18:20:38.037Z,16.37
2019-03-08T18:23:18.782Z,15.98
2019-03-08T18:25:51.239Z,15.08
2019-03-08T18:28:41.455Z,14.30
2019-03-08T18:31:29.948Z,14.68
2019-03-08T18:34:04.769Z,14.78
2019-03-08T18:36:55.423Z,13.80
2019-03-08T18:39:43.517Z,14.53
2019-03-08T18:42:33.449Z,14.15
2019-03-08T18:45:11.394Z,14.00
2019-03-08T18:47:45.714Z,13.70
2019-03-08T18:50:27.509Z,13.85
2019-03-08T18:53:05.765Z,13.53
2019-03-08T18:55:37.588Z,13.90
2019-03-08T18:58:12.295Z,14.38
2019-03-08T19:00:46.982Z,13.88
2019-03-08T19:03:27.050Z,14.13
2019-03-08T19:06:02.958Z,13.32
2019-03-08T19:08:35.263Z,14.33
2019-03-08T19:11:22.095Z,14.38
2019-03-08T19:14:10.933Z,14.10
2019-03-08T19:16:55.290Z,14.07
2019-03-08T19:19:40.145Z,13.75
2019-03-08T19:22:45.542Z,13.88
2019-03-08T19:25:33.846Z,13.98
2019-03-08T19:28:10.024Z,12.50
2019-03-08T19:30:47.549Z,12.58
2019-03-08T19:33:19.607Z,13.18
2019-03-08T19:35:57.129Z,13.05
2019-03-08T19:38:32.148Z,12.58
2019-03-08T19:41:13.234Z,13.43
2019-03-08T19:43:54.466Z,13.13
2019-03-08T19:46:29.881Z,12.47
2019-03-08T19:49:08.148Z,12.88
2019-03-08T19:51:44.488Z,12.30
2019-03-08T19:54:22.378Z,12.63
2019-03-08T19:57:06.362Z,12.43
2019-03-08T19:59:40.638Z,12.75
2019-03-08T20:02:12.953Z,12.68
2019-03-08T20:04:51.048Z,12.88
2019-03-08T20:07:22.969Z,12.65
2019-03-08T20:10:00.463Z,12.65
2019-03-08T20:12:32.509Z,12.10
2019-03-08T20:15:13.717Z,11.15
2019-03-08T20:17:49.562Z,11.95
2019-03-08T20:23:01.657Z,11.93
2019-03-08T20:25:33.858Z,12.10
2019-03-08T20:28:15.144Z,11.45
2019-03-08T20:30:51.778Z,11.93
2019-03-08T20:33:24.206Z,12.30
2019-03-08T20:36:08.541Z,11.68
2019-03-08T20:38:43.913Z,11.80
2019-03-08T20:41:15.985Z,12.55
2019-03-08T20:43:48.013Z,11.95
2019-03-08T20:46:43.582Z,12.40
2019-03-08T20:49:16.180Z,11.85
2019-03-08T20:51:46.975Z,11.53
2019-03-08T20:54:17.964Z,12.35
2019-03-08T20:56:48.684Z,12.10
2019-03-08T20:59:19.242Z,12.47
2019-03-08T21:01:49.977Z,11.83
2019-03-08T21:04:20.368Z,12.53
2019-03-08T21:06:51.335Z,12.40
2019-03-08T21:09:22.310Z,12.60
2019-03-08T21:11:53.122Z,12.03
2019-03-08T21:14:24.047Z,11.90
2019-03-08T21:16:54.707Z,12.35
2019-03-08T21:19:25.418Z,11.75
2019-03-08T21:21:56.166Z,11.97
2019-03-08T21:24:26.878Z,11.78
2019-03-08T21:26:57.496Z,11.95
2019-03-08T21:29:28.286Z,11.93
2019-03-08T21:31:58.838Z,11.65
2019-03-08T21:34:29.497Z,11.50
2019-03-08T21:37:01.579Z,11.00
2019-03-08T21:39:32.258Z,11.10
2019-03-08T21:42:03.159Z,11.18
2019-03-08T21:44:34.197Z,10.98
2019-03-08T21:47:04.852Z,10.78
2019-03-08T21:49:39.269Z,10.58
2019-03-08T21:52:29.550Z,11.20
2019-03-08T21:55:00.787Z,10.35
2019-03-08T21:57:31.427Z,11.55
2019-03-08T22:02:51.547Z,11.05
2019-03-08T22:05:25.065Z,11.05
2019-03-08T22:07:55.893Z,10.90
2019-03-08T22:10:37.111Z,11.57
2019-03-08T22:13:07.997Z,10.63
2019-03-08T22:15:38.926Z,10.88
2019-03-08T22:18:09.666Z,10.88
2019-03-08T22:20:40.744Z,11.22
2019-03-08T22:23:31.851Z,11.10
2019-03-08T22:26:02.999Z,11.28
2019-03-08T22:28:33.767Z,10.65
2019-03-08T22:31:04.698Z,10.70
2019-03-08T22:33:35.644Z,10.15
2019-03-08T22:36:10.089Z,11.38
2019-03-08T22:38:40.957Z,10.65
2019-03-08T22:41:11.335Z,10.55
2019-03-08T22:43:42.050Z,10.53
2019-03-08T22:46:12.606Z,10.53
2019-03-08T22:48:43.792Z,11.08
2019-03-08T22:51:15.766Z,10.88
2019-03-08T22:53:47.228Z,10.90
2019-03-08T22:56:17.960Z,10.53
2019-03-08T22:58:48.515Z,11.10
2019-03-08T23:01:22.042Z,10.55
2019-03-08T23:03:53.651Z,10.72
2019-03-08T23:06:24.283Z,11.03
2019-03-08T23:08:55.036Z,11.15
2019-03-08T23:11:26.260Z,10.90
2019-03-08T23:13:57.322Z,10.23
2019-03-08T23:16:27.907Z,10.43
2019-03-08T23:18:59.134Z,10.10
2019-03-08T23:21:30.191Z,10.00
2019-03-08T23:24:02.855Z,11.33
2019-03-08T23:26:36.434Z,11.38
2019-03-08T23:29:12.335Z,12.33
2019-03-08T23:34:15.210Z,12.63
2019-03-08T23:36:45.763Z,14.93
2019-03-08T23:39:16.246Z,15.13
2019-03-08T23:41:48.112Z,15.10
2019-03-08T23:44:19.216Z,15.20
2019-03-08T23:46:49.601Z,14.95
2019-03-08T23:49:20.286Z,15.43
2019-03-08T23:51:53.303Z,14.73
2019-03-08T23:54:23.699Z,14.70
2019-03-08T23:56:54.407Z,14.35
2019-03-08T23:59:24.955Z,15.85
